12TA weather

Channel Two Heliport
Houston, Texas, United States

Public forecast

Using degrees Fahrenheit for public forecast. Weather courtesy of forecast.io.

METAR (pilot weather report)

Closest report is Sugar Land Regional Airport, 7.9 nm (14.6 km) WSW. Retrieved 2019/07/17 10:53 UTC (43 minutes ago):

KSGR 171053Z 15003KT 10SM CLR 26/26 A3002 RMK AO2 SLP167 T02610256

TAF (pilot weather forecast)

Closest forecast is Sugar Land Regional Airport, 7.9 nm (14.6 km) WSW. Retrieved 2019/07/17 06:22 UTC (5 hours ago):

TAF KSGR 170520Z 1706/1806 15006KT P6SM SCT020 SCT250 FM171300 17006KT P6SM SCT025 TEMPO 1713/1715 BKN025 FM171600 17011KT P6SM SCT035 FM180200 16006KT P6SM FEW030 SCT250